ENLA

Ula Platform Heliport

Norway
METAR ENLA 241950Z AUTO 14023KT 9999NDV OVC017/// 02/M01 Q1032 W///S4
Observed Flight Rules
Feb-24 @ 19:50 UTC (24 minutes ago)
Wind Clouds
140° at 23 knots
  • Overcast at 1,700' AGL
Temperatures Readings
Current 2°C / 36°F
Dewpoint -1°C / 30°F
Humidity 81%
Altimeter 30.47" Hg
Pressure 1032 hPa
Elevation 4
METAR ENLA 241950Z AUTO 14023KT 9999NDV OVC017/// 02/M01 Q1032 W///S4
Observed Flight Rules
Feb-24 @ 19:50 UTC
(24 minutes ago)
Wind
140° at 23 knots
Clouds
  • Overcast at 1,700' AGL
Temperature Dewpoint
2°C / 36°F -1°C / 30°F
Humidity Altimeter Pressure
81% 30.47" Hg 1032 hPa